Utida, Utah
Current Conditions -  °F | °C
As of 7:51 PM on Friday 21 Nov 2014 (Local Time) from KLGU Reporting Station
Clear Clear  
Wind Chill: 25°   Ceiling: Unl
Heat Index: 30°   Visibility: 10mi
Dew Point: 24°   Wind: 5mph
Humidity: 79%   Direction: 140°SE
Pressure: 29.98"   Gusts: NA
Location:  41.9655°N, 112.049°W
Report Text: KLGU 220251Z AUTO 14004KT 10SM CLR M01/M04 A2998 RMK AO2 SLP179 T10111044 57002
Loading
Personal Weather Stations






























Interactive Weather Map New forecast layout! Learn more

10-Day Weather Forecast

Advertisements
Track Severe Weather on mobile